sensor_id;sensor_type;location;lat;lon;timestamp;temperature;humidity
35668;DHT22;22158;59.280;17.806;2024-01-16T00:02:00;-10.90;99.90
35668;DHT22;22158;59.280;17.806;2024-01-16T00:04:26;-10.90;99.90
35668;DHT22;22158;59.280;17.806;2024-01-16T00:06:55;-11.00;99.90
35668;DHT22;22158;59.280;17.806;2024-01-16T00:09:21;-11.00;99.90
35668;DHT22;22158;59.280;17.806;2024-01-16T00:11:46;-11.00;99.90
35668;DHT22;22158;59.280;17.806;2024-01-16T00:14:12;-11.10;99.90
35668;DHT22;22158;59.280;17.806;2024-01-16T00:16:47;-11.20;99.90
35668;DHT22;22158;59.280;17.806;2024-01-16T00:19:15;-11.20;99.90
35668;DHT22;22158;59.280;17.806;2024-01-16T00:21:42;-11.30;99.90
35668;DHT22;22158;59.280;17.806;2024-01-16T00:24:08;-11.30;99.90
35668;DHT22;22158;59.280;17.806;2024-01-16T00:26:34;-11.30;99.90
35668;DHT22;22158;59.280;17.806;2024-01-16T00:29:00;-11.40;99.90
35668;DHT22;22158;59.280;17.806;2024-01-16T00:31:26;-11.40;99.90
35668;DHT22;22158;59.280;17.806;2024-01-16T00:33:52;-11.40;99.90
35668;DHT22;22158;59.280;17.806;2024-01-16T00:36:17;-11.50;99.90
35668;DHT22;22158;59.280;17.806;2024-01-16T00:38:43;-11.50;99.90
35668;DHT22;22158;59.280;17.806;2024-01-16T00:41:09;-11.50;99.90
35668;DHT22;22158;59.280;17.806;2024-01-16T00:43:34;-11.50;99.90
35668;DHT22;22158;59.280;17.806;2024-01-16T00:46:01;-11.50;99.90
35668;DHT22;22158;59.280;17.806;2024-01-16T00:48:26;-11.50;99.90
35668;DHT22;22158;59.280;17.806;2024-01-16T00:50:52;-11.50;99.90
35668;DHT22;22158;59.280;17.806;2024-01-16T00:53:18;-11.60;99.90
35668;DHT22;22158;59.280;17.806;2024-01-16T00:55:44;-11.70;99.90
35668;DHT22;22158;59.280;17.806;2024-01-16T00:58:09;-11.80;99.90
35668;DHT22;22158;59.280;17.806;2024-01-16T01:00:35;-11.80;99.90
35668;DHT22;22158;59.280;17.806;2024-01-16T01:03:03;-11.90;99.90
35668;DHT22;22158;59.280;17.806;2024-01-16T01:05:31;-11.90;99.90
35668;DHT22;22158;59.280;17.806;2024-01-16T01:07:57;-12.00;99.90
35668;DHT22;22158;59.280;17.806;2024-01-16T01:10:23;-12.00;99.90
35668;DHT22;22158;59.280;17.806;2024-01-16T01:12:49;-12.00;99.90
35668;DHT22;22158;59.280;17.806;2024-01-16T01:15:17;-12.10;99.90
35668;DHT22;22158;59.280;17.806;2024-01-16T01:17:42;-12.20;99.90
35668;DHT22;22158;59.280;17.806;2024-01-16T01:20:08;-12.20;99.90
35668;DHT22;22158;59.280;17.806;2024-01-16T01:22:34;-12.20;99.90
35668;DHT22;22158;59.280;17.806;2024-01-16T01:25:00;-12.20;99.90
35668;DHT22;22158;59.280;17.806;2024-01-16T01:27:25;-12.20;99.90
35668;DHT22;22158;59.280;17.806;2024-01-16T01:29:51;-12.30;99.90
35668;DHT22;22158;59.280;17.806;2024-01-16T01:32:17;-12.30;99.90
35668;DHT22;22158;59.280;17.806;2024-01-16T01:34:43;-12.20;99.90
35668;DHT22;22158;59.280;17.806;2024-01-16T01:37:08;-12.30;99.90
35668;DHT22;22158;59.280;17.806;2024-01-16T01:39:34;-12.40;99.90
35668;DHT22;22158;59.280;17.806;2024-01-16T01:42:00;-12.40;99.90
35668;DHT22;22158;59.280;17.806;2024-01-16T01:44:26;-12.40;99.90
35668;DHT22;22158;59.280;17.806;2024-01-16T01:46:54;-12.40;99.90
35668;DHT22;22158;59.280;17.806;2024-01-16T01:49:20;-12.40;99.90
35668;DHT22;22158;59.280;17.806;2024-01-16T01:51:47;-12.40;99.90
35668;DHT22;22158;59.280;17.806;2024-01-16T01:54:13;-12.50;99.90
35668;DHT22;22158;59.280;17.806;2024-01-16T01:56:43;-12.50;99.90
35668;DHT22;22158;59.280;17.806;2024-01-16T01:59:10;-12.40;99.90
35668;DHT22;22158;59.280;17.806;2024-01-16T02:01:37;-12.50;99.90
35668;DHT22;22158;59.280;17.806;2024-01-16T02:04:04;-12.50;99.90
35668;DHT22;22158;59.280;17.806;2024-01-16T02:06:30;-12.50;99.90
35668;DHT22;22158;59.280;17.806;2024-01-16T02:08:57;-12.50;99.90
35668;DHT22;22158;59.280;17.806;2024-01-16T02:11:23;-12.50;99.90
35668;DHT22;22158;59.280;17.806;2024-01-16T02:13:48;-12.50;99.90
35668;DHT22;22158;59.280;17.806;2024-01-16T02:16:21;-12.60;99.90
35668;DHT22;22158;59.280;17.806;2024-01-16T02:18:48;-12.60;99.90
35668;DHT22;22158;59.280;17.806;2024-01-16T02:21:25;-12.60;99.90
35668;DHT22;22158;59.280;17.806;2024-01-16T02:23:53;-12.60;99.90
35668;DHT22;22158;59.280;17.806;2024-01-16T02:26:19;-12.60;99.90
35668;DHT22;22158;59.280;17.806;2024-01-16T02:28:45;-12.60;99.90
35668;DHT22;22158;59.280;17.806;2024-01-16T02:31:11;-12.50;99.90
35668;DHT22;22158;59.280;17.806;2024-01-16T02:33:37;-12.60;99.90
35668;DHT22;22158;59.280;17.806;2024-01-16T02:36:04;-12.60;99.90
35668;DHT22;22158;59.280;17.806;2024-01-16T02:38:29;-12.60;99.90
35668;DHT22;22158;59.280;17.806;2024-01-16T02:40:55;-12.60;99.90
35668;DHT22;22158;59.280;17.806;2024-01-16T02:43:21;-12.60;99.90
35668;DHT22;22158;59.280;17.806;2024-01-16T02:45:47;-12.70;99.90
35668;DHT22;22158;59.280;17.806;2024-01-16T02:48:13;-12.70;99.90
35668;DHT22;22158;59.280;17.806;2024-01-16T02:50:38;-12.70;99.90
35668;DHT22;22158;59.280;17.806;2024-01-16T02:53:04;-12.80;99.90
35668;DHT22;22158;59.280;17.806;2024-01-16T02:55:30;-12.80;99.90
35668;DHT22;22158;59.280;17.806;2024-01-16T02:57:55;-12.80;99.90
35668;DHT22;22158;59.280;17.806;2024-01-16T03:00:21;-12.90;99.90
35668;DHT22;22158;59.280;17.806;2024-01-16T03:02:48;-12.90;99.90
35668;DHT22;22158;59.280;17.806;2024-01-16T03:05:14;-12.90;99.90
35668;DHT22;22158;59.280;17.806;2024-01-16T03:07:41;-12.90;99.90
35668;DHT22;22158;59.280;17.806;2024-01-16T03:10:07;-12.90;99.90
35668;DHT22;22158;59.280;17.806;2024-01-16T03:12:33;-12.90;99.90
35668;DHT22;22158;59.280;17.806;2024-01-16T03:14:58;-12.90;99.90
35668;DHT22;22158;59.280;17.806;2024-01-16T03:17:24;-13.00;99.90
35668;DHT22;22158;59.280;17.806;2024-01-16T03:19:49;-13.00;99.90
35668;DHT22;22158;59.280;17.806;2024-01-16T03:22:15;-13.00;99.90
35668;DHT22;22158;59.280;17.806;2024-01-16T03:24:41;-13.00;99.90
35668;DHT22;22158;59.280;17.806;2024-01-16T03:27:06;-13.00;99.90
35668;DHT22;22158;59.280;17.806;2024-01-16T03:29:32;-13.00;99.90
35668;DHT22;22158;59.280;17.806;2024-01-16T03:31:59;-13.10;99.90
35668;DHT22;22158;59.280;17.806;2024-01-16T03:34:25;-13.10;99.90
35668;DHT22;22158;59.280;17.806;2024-01-16T03:36:50;-13.10;99.90
35668;DHT22;22158;59.280;17.806;2024-01-16T03:39:16;-13.10;99.90
35668;DHT22;22158;59.280;17.806;2024-01-16T03:41:41;-13.10;99.90
35668;DHT22;22158;59.280;17.806;2024-01-16T03:44:07;-13.10;99.90
35668;DHT22;22158;59.280;17.806;2024-01-16T03:46:33;-13.20;99.90
35668;DHT22;22158;59.280;17.806;2024-01-16T03:48:58;-13.20;99.90
35668;DHT22;22158;59.280;17.806;2024-01-16T03:51:24;-13.20;99.90
35668;DHT22;22158;59.280;17.806;2024-01-16T03:53:50;-13.10;99.90
35668;DHT22;22158;59.280;17.806;2024-01-16T03:56:16;-13.10;99.90
35668;DHT22;22158;59.280;17.806;2024-01-16T03:58:42;-13.10;99.90
35668;DHT22;22158;59.280;17.806;2024-01-16T04:01:08;-13.10;99.90
35668;DHT22;22158;59.280;17.806;2024-01-16T04:03:34;-13.00;99.90
35668;DHT22;22158;59.280;17.806;2024-01-16T04:06:00;-13.00;99.90
35668;DHT22;22158;59.280;17.806;2024-01-16T04:08:26;-13.00;99.90
35668;DHT22;22158;59.280;17.806;2024-01-16T04:10:52;-13.00;99.90
35668;DHT22;22158;59.280;17.806;2024-01-16T04:13:17;-13.00;99.90
35668;DHT22;22158;59.280;17.806;2024-01-16T04:15:43;-13.00;99.90
35668;DHT22;22158;59.280;17.806;2024-01-16T04:18:09;-13.00;99.90
35668;DHT22;22158;59.280;17.806;2024-01-16T04:20:35;-13.10;99.90
35668;DHT22;22158;59.280;17.806;2024-01-16T04:23:01;-13.10;99.90
35668;DHT22;22158;59.280;17.806;2024-01-16T04:25:27;-13.10;99.90
35668;DHT22;22158;59.280;17.806;2024-01-16T04:27:52;-13.10;99.90
35668;DHT22;22158;59.280;17.806;2024-01-16T04:30:18;-13.20;99.90
35668;DHT22;22158;59.280;17.806;2024-01-16T04:32:45;-13.10;99.90
35668;DHT22;22158;59.280;17.806;2024-01-16T04:35:11;-13.20;99.90
35668;DHT22;22158;59.280;17.806;2024-01-16T04:37:37;-13.10;99.90
35668;DHT22;22158;59.280;17.806;2024-01-16T04:40:03;-13.10;99.90
35668;DHT22;22158;59.280;17.806;2024-01-16T04:42:30;-13.20;99.90
35668;DHT22;22158;59.280;17.806;2024-01-16T04:44:56;-13.20;99.90
35668;DHT22;22158;59.280;17.806;2024-01-16T04:47:22;-13.20;99.90
35668;DHT22;22158;59.280;17.806;2024-01-16T04:49:48;-13.30;99.90
35668;DHT22;22158;59.280;17.806;2024-01-16T04:52:13;-13.30;99.90
35668;DHT22;22158;59.280;17.806;2024-01-16T04:54:39;-13.30;99.90
35668;DHT22;22158;59.280;17.806;2024-01-16T04:57:05;-13.40;99.90
35668;DHT22;22158;59.280;17.806;2024-01-16T04:59:30;-13.40;99.90
35668;DHT22;22158;59.280;17.806;2024-01-16T05:01:56;-13.40;99.90
35668;DHT22;22158;59.280;17.806;2024-01-16T05:04:22;-13.40;99.90
35668;DHT22;22158;59.280;17.806;2024-01-16T05:06:50;-13.40;99.90
35668;DHT22;22158;59.280;17.806;2024-01-16T05:09:16;-13.50;99.90
35668;DHT22;22158;59.280;17.806;2024-01-16T05:11:42;-13.50;99.90
35668;DHT22;22158;59.280;17.806;2024-01-16T05:14:08;-13.40;99.90
35668;DHT22;22158;59.280;17.806;2024-01-16T05:16:33;-13.40;99.90
35668;DHT22;22158;59.280;17.806;2024-01-16T05:18:59;-13.40;99.90
35668;DHT22;22158;59.280;17.806;2024-01-16T05:21:24;-13.40;99.90
35668;DHT22;22158;59.280;17.806;2024-01-16T05:23:50;-13.40;99.90
35668;DHT22;22158;59.280;17.806;2024-01-16T05:26:16;-13.40;99.90
35668;DHT22;22158;59.280;17.806;2024-01-16T05:28:41;-13.50;99.90
35668;DHT22;22158;59.280;17.806;2024-01-16T05:31:07;-13.50;99.90
35668;DHT22;22158;59.280;17.806;2024-01-16T05:33:33;-13.50;99.90
35668;DHT22;22158;59.280;17.806;2024-01-16T05:35:58;-13.50;99.90
35668;DHT22;22158;59.280;17.806;2024-01-16T05:38:24;-13.50;99.90
35668;DHT22;22158;59.280;17.806;2024-01-16T05:40:50;-13.50;99.90
35668;DHT22;22158;59.280;17.806;2024-01-16T05:43:15;-13.50;99.90
35668;DHT22;22158;59.280;17.806;2024-01-16T05:45:41;-13.50;99.90
35668;DHT22;22158;59.280;17.806;2024-01-16T05:48:06;-13.50;99.90
35668;DHT22;22158;59.280;17.806;2024-01-16T05:50:37;-13.50;99.90
35668;DHT22;22158;59.280;17.806;2024-01-16T05:53:03;-13.50;99.90
35668;DHT22;22158;59.280;17.806;2024-01-16T05:55:29;-13.50;99.90
35668;DHT22;22158;59.280;17.806;2024-01-16T05:57:58;-13.50;99.90
35668;DHT22;22158;59.280;17.806;2024-01-16T06:00:25;-13.50;99.90
35668;DHT22;22158;59.280;17.806;2024-01-16T06:02:50;-13.60;99.90
35668;DHT22;22158;59.280;17.806;2024-01-16T06:05:16;-13.60;99.90
35668;DHT22;22158;59.280;17.806;2024-01-16T06:07:42;-13.60;99.90
35668;DHT22;22158;59.280;17.806;2024-01-16T06:10:08;-13.50;99.90
35668;DHT22;22158;59.280;17.806;2024-01-16T06:12:34;-13.50;99.90
35668;DHT22;22158;59.280;17.806;2024-01-16T06:15:00;-13.50;99.90
35668;DHT22;22158;59.280;17.806;2024-01-16T06:17:26;-13.50;99.90
35668;DHT22;22158;59.280;17.806;2024-01-16T06:19:52;-13.60;99.90
35668;DHT22;22158;59.280;17.806;2024-01-16T06:22:18;-13.60;99.90
35668;DHT22;22158;59.280;17.806;2024-01-16T06:24:43;-13.60;99.90
35668;DHT22;22158;59.280;17.806;2024-01-16T06:27:09;-13.60;99.90
35668;DHT22;22158;59.280;17.806;2024-01-16T06:29:35;-13.60;99.90
35668;DHT22;22158;59.280;17.806;2024-01-16T06:32:00;-13.60;99.90
35668;DHT22;22158;59.280;17.806;2024-01-16T06:34:27;-13.60;99.90
35668;DHT22;22158;59.280;17.806;2024-01-16T06:36:53;-13.60;99.90
35668;DHT22;22158;59.280;17.806;2024-01-16T06:39:19;-13.60;99.90
35668;DHT22;22158;59.280;17.806;2024-01-16T06:41:44;-13.60;99.90
35668;DHT22;22158;59.280;17.806;2024-01-16T06:44:10;-13.60;99.90
35668;DHT22;22158;59.280;17.806;2024-01-16T06:46:36;-13.60;99.90
35668;DHT22;22158;59.280;17.806;2024-01-16T06:49:01;-13.70;99.90
35668;DHT22;22158;59.280;17.806;2024-01-16T06:51:27;-13.70;99.90
35668;DHT22;22158;59.280;17.806;2024-01-16T06:53:53;-13.70;99.90
35668;DHT22;22158;59.280;17.806;2024-01-16T06:56:19;-13.70;99.90
35668;DHT22;22158;59.280;17.806;2024-01-16T06:58:44;-13.70;99.90
35668;DHT22;22158;59.280;17.806;2024-01-16T07:01:10;-13.70;99.90
35668;DHT22;22158;59.280;17.806;2024-01-16T07:03:36;-13.70;99.90
35668;DHT22;22158;59.280;17.806;2024-01-16T07:06:02;-13.70;99.90
35668;DHT22;22158;59.280;17.806;2024-01-16T07:08:28;-13.70;99.90
35668;DHT22;22158;59.280;17.806;2024-01-16T07:10:53;-13.70;99.90
35668;DHT22;22158;59.280;17.806;2024-01-16T07:13:19;-13.70;99.90
35668;DHT22;22158;59.280;17.806;2024-01-16T07:15:45;-13.70;99.90
35668;DHT22;22158;59.280;17.806;2024-01-16T07:18:11;-13.80;99.90
35668;DHT22;22158;59.280;17.806;2024-01-16T07:20:36;-13.80;99.90
35668;DHT22;22158;59.280;17.806;2024-01-16T07:23:02;-13.80;99.90
35668;DHT22;22158;59.280;17.806;2024-01-16T07:25:28;-13.80;99.90
35668;DHT22;22158;59.280;17.806;2024-01-16T07:27:54;-13.80;99.90
35668;DHT22;22158;59.280;17.806;2024-01-16T07:30:19;-13.90;99.90
35668;DHT22;22158;59.280;17.806;2024-01-16T07:32:45;-13.80;99.90
35668;DHT22;22158;59.280;17.806;2024-01-16T07:35:10;-13.80;99.90
35668;DHT22;22158;59.280;17.806;2024-01-16T07:37:36;-13.80;99.90
35668;DHT22;22158;59.280;17.806;2024-01-16T07:40:03;-13.90;99.90
35668;DHT22;22158;59.280;17.806;2024-01-16T07:42:31;-13.90;99.90
35668;DHT22;22158;59.280;17.806;2024-01-16T07:45:00;-13.90;99.90
35668;DHT22;22158;59.280;17.806;2024-01-16T07:47:32;-13.90;99.90
35668;DHT22;22158;59.280;17.806;2024-01-16T07:49:59;-13.90;99.90
35668;DHT22;22158;59.280;17.806;2024-01-16T07:52:25;-13.90;99.90
35668;DHT22;22158;59.280;17.806;2024-01-16T07:54:51;-13.90;99.90
35668;DHT22;22158;59.280;17.806;2024-01-16T07:57:16;-13.90;99.90
35668;DHT22;22158;59.280;17.806;2024-01-16T07:59:42;-13.90;99.90
35668;DHT22;22158;59.280;17.806;2024-01-16T08:02:07;-14.00;99.90
35668;DHT22;22158;59.280;17.806;2024-01-16T08:04:34;-14.00;99.90
35668;DHT22;22158;59.280;17.806;2024-01-16T08:07:00;-14.00;99.90
35668;DHT22;22158;59.280;17.806;2024-01-16T08:09:26;-14.00;99.90
35668;DHT22;22158;59.280;17.806;2024-01-16T08:11:52;-14.00;99.90
35668;DHT22;22158;59.280;17.806;2024-01-16T08:14:17;-14.00;99.90
35668;DHT22;22158;59.280;17.806;2024-01-16T08:16:43;-14.00;99.90
35668;DHT22;22158;59.280;17.806;2024-01-16T08:19:09;-14.00;99.90
35668;DHT22;22158;59.280;17.806;2024-01-16T08:21:34;-13.90;99.90
35668;DHT22;22158;59.280;17.806;2024-01-16T08:24:00;-13.90;99.90
35668;DHT22;22158;59.280;17.806;2024-01-16T08:26:26;-13.90;99.90
35668;DHT22;22158;59.280;17.806;2024-01-16T08:28:52;-13.90;99.90
35668;DHT22;22158;59.280;17.806;2024-01-16T08:31:18;-13.90;99.90
35668;DHT22;22158;59.280;17.806;2024-01-16T08:33:46;-13.90;99.90
35668;DHT22;22158;59.280;17.806;2024-01-16T08:36:13;-13.90;99.90
35668;DHT22;22158;59.280;17.806;2024-01-16T08:38:39;-13.90;99.90
35668;DHT22;22158;59.280;17.806;2024-01-16T08:41:06;-13.90;99.90
35668;DHT22;22158;59.280;17.806;2024-01-16T08:43:33;-13.90;99.90
35668;DHT22;22158;59.280;17.806;2024-01-16T08:45:59;-14.00;99.90
35668;DHT22;22158;59.280;17.806;2024-01-16T08:48:24;-14.00;99.90
35668;DHT22;22158;59.280;17.806;2024-01-16T08:50:51;-13.90;99.90
35668;DHT22;22158;59.280;17.806;2024-01-16T08:53:17;-13.90;99.90
35668;DHT22;22158;59.280;17.806;2024-01-16T08:55:42;-13.80;99.90
35668;DHT22;22158;59.280;17.806;2024-01-16T08:58:08;-13.70;99.90
35668;DHT22;22158;59.280;17.806;2024-01-16T09:00:34;-13.60;99.90
35668;DHT22;22158;59.280;17.806;2024-01-16T09:02:59;-13.60;99.90
35668;DHT22;22158;59.280;17.806;2024-01-16T09:05:25;-13.60;99.90
35668;DHT22;22158;59.280;17.806;2024-01-16T09:07:51;-13.50;99.90
35668;DHT22;22158;59.280;17.806;2024-01-16T09:10:18;-13.60;99.90
35668;DHT22;22158;59.280;17.806;2024-01-16T09:12:44;-13.70;99.90
35668;DHT22;22158;59.280;17.806;2024-01-16T09:15:10;-13.70;99.90
35668;DHT22;22158;59.280;17.806;2024-01-16T09:17:36;-13.70;99.90
35668;DHT22;22158;59.280;17.806;2024-01-16T09:20:01;-13.60;99.90
35668;DHT22;22158;59.280;17.806;2024-01-16T09:22:27;-13.50;99.90
35668;DHT22;22158;59.280;17.806;2024-01-16T09:24:53;-13.50;99.90
35668;DHT22;22158;59.280;17.806;2024-01-16T09:27:18;-13.50;99.90
35668;DHT22;22158;59.280;17.806;2024-01-16T09:29:45;-13.50;99.90
35668;DHT22;22158;59.280;17.806;2024-01-16T09:32:10;-13.40;99.90
35668;DHT22;22158;59.280;17.806;2024-01-16T09:34:36;-13.40;99.90
35668;DHT22;22158;59.280;17.806;2024-01-16T09:37:02;-13.40;99.90
35668;DHT22;22158;59.280;17.806;2024-01-16T09:39:28;-13.30;99.90
35668;DHT22;22158;59.280;17.806;2024-01-16T09:41:59;-13.30;99.90
35668;DHT22;22158;59.280;17.806;2024-01-16T09:44:25;-13.30;99.90
35668;DHT22;22158;59.280;17.806;2024-01-16T09:46:53;-13.30;99.90
35668;DHT22;22158;59.280;17.806;2024-01-16T09:49:20;-13.30;99.90
35668;DHT22;22158;59.280;17.806;2024-01-16T09:51:46;-13.30;99.90
35668;DHT22;22158;59.280;17.806;2024-01-16T09:54:12;-13.30;99.90
35668;DHT22;22158;59.280;17.806;2024-01-16T09:56:44;-13.30;99.90
35668;DHT22;22158;59.280;17.806;2024-01-16T09:59:16;-13.20;99.90
35668;DHT22;22158;59.280;17.806;2024-01-16T10:01:42;-13.20;99.90
35668;DHT22;22158;59.280;17.806;2024-01-16T10:04:09;-13.20;99.90
35668;DHT22;22158;59.280;17.806;2024-01-16T10:06:37;-13.20;99.90
35668;DHT22;22158;59.280;17.806;2024-01-16T10:09:03;-13.20;99.90
35668;DHT22;22158;59.280;17.806;2024-01-16T10:11:30;-13.10;99.90
35668;DHT22;22158;59.280;17.806;2024-01-16T10:13:58;-13.10;99.90
35668;DHT22;22158;59.280;17.806;2024-01-16T10:16:57;-13.00;99.90
35668;DHT22;22158;59.280;17.806;2024-01-16T10:19:23;-13.00;99.90
35668;DHT22;22158;59.280;17.806;2024-01-16T10:21:51;-13.10;99.90
35668;DHT22;22158;59.280;17.806;2024-01-16T10:24:16;-13.00;99.90
35668;DHT22;22158;59.280;17.806;2024-01-16T10:26:42;-12.90;99.90
35668;DHT22;22158;59.280;17.806;2024-01-16T10:29:07;-12.90;99.90
35668;DHT22;22158;59.280;17.806;2024-01-16T10:31:34;-12.90;99.90
35668;DHT22;22158;59.280;17.806;2024-01-16T10:34:00;-12.90;99.90
35668;DHT22;22158;59.280;17.806;2024-01-16T10:36:26;-12.90;99.90
35668;DHT22;22158;59.280;17.806;2024-01-16T10:38:52;-13.00;99.90
35668;DHT22;22158;59.280;17.806;2024-01-16T10:41:23;-12.90;99.90
35668;DHT22;22158;59.280;17.806;2024-01-16T10:44:12;-12.90;99.90
35668;DHT22;22158;59.280;17.806;2024-01-16T10:46:37;-12.90;99.90
35668;DHT22;22158;59.280;17.806;2024-01-16T10:49:04;-12.80;99.90
35668;DHT22;22158;59.280;17.806;2024-01-16T10:51:31;-12.80;99.90
35668;DHT22;22158;59.280;17.806;2024-01-16T10:54:04;-12.70;99.90
35668;DHT22;22158;59.280;17.806;2024-01-16T10:56:36;-12.80;99.90
35668;DHT22;22158;59.280;17.806;2024-01-16T11:01:51;-12.80;99.90
35668;DHT22;22158;59.280;17.806;2024-01-16T11:04:18;-12.70;99.90
35668;DHT22;22158;59.280;17.806;2024-01-16T11:06:46;-12.70;99.90
35668;DHT22;22158;59.280;17.806;2024-01-16T11:09:15;-12.60;99.90
35668;DHT22;22158;59.280;17.806;2024-01-16T11:11:43;-12.50;99.90
35668;DHT22;22158;59.280;17.806;2024-01-16T11:14:11;-12.50;99.90
35668;DHT22;22158;59.280;17.806;2024-01-16T11:16:39;-12.40;99.90
35668;DHT22;22158;59.280;17.806;2024-01-16T11:19:08;-12.30;99.90
35668;DHT22;22158;59.280;17.806;2024-01-16T11:21:35;-12.20;99.90
35668;DHT22;22158;59.280;17.806;2024-01-16T11:24:02;-12.20;99.90
35668;DHT22;22158;59.280;17.806;2024-01-16T11:26:35;-12.20;99.90
35668;DHT22;22158;59.280;17.806;2024-01-16T11:31:53;-12.00;99.90
35668;DHT22;22158;59.280;17.806;2024-01-16T11:37:13;-12.00;99.90
35668;DHT22;22158;59.280;17.806;2024-01-16T11:39:39;-12.10;99.90
35668;DHT22;22158;59.280;17.806;2024-01-16T11:42:07;-12.10;99.90
35668;DHT22;22158;59.280;17.806;2024-01-16T11:44:48;-12.10;99.90
35668;DHT22;22158;59.280;17.806;2024-01-16T11:50:07;-12.10;99.90
35668;DHT22;22158;59.280;17.806;2024-01-16T11:52:44;-12.00;99.90
35668;DHT22;22158;59.280;17.806;2024-01-16T11:55:33;-12.00;99.90
35668;DHT22;22158;59.280;17.806;2024-01-16T12:00:35;-11.90;99.90
35668;DHT22;22158;59.280;17.806;2024-01-16T12:03:05;-11.80;99.90
35668;DHT22;22158;59.280;17.806;2024-01-16T12:05:31;-11.80;99.90
35668;DHT22;22158;59.280;17.806;2024-01-16T12:07:58;-11.80;99.90
35668;DHT22;22158;59.280;17.806;2024-01-16T12:10:24;-11.80;99.90
35668;DHT22;22158;59.280;17.806;2024-01-16T12:12:51;-11.80;99.90
35668;DHT22;22158;59.280;17.806;2024-01-16T12:15:21;-11.80;99.90
35668;DHT22;22158;59.280;17.806;2024-01-16T12:18:01;-11.80;99.90
35668;DHT22;22158;59.280;17.806;2024-01-16T12:20:32;-11.70;99.90
35668;DHT22;22158;59.280;17.806;2024-01-16T12:22:59;-11.60;99.90
35668;DHT22;22158;59.280;17.806;2024-01-16T12:25:29;-11.60;99.90
35668;DHT22;22158;59.280;17.806;2024-01-16T12:27:59;-11.60;99.90
35668;DHT22;22158;59.280;17.806;2024-01-16T12:30:26;-11.50;99.90
35668;DHT22;22158;59.280;17.806;2024-01-16T12:35:28;-11.20;99.90
35668;DHT22;22158;59.280;17.806;2024-01-16T12:38:00;-11.00;99.90
35668;DHT22;22158;59.280;17.806;2024-01-16T12:40:27;-10.70;99.90
35668;DHT22;22158;59.280;17.806;2024-01-16T12:42:53;-10.50;99.90
35668;DHT22;22158;59.280;17.806;2024-01-16T12:45:19;-10.60;99.90
35668;DHT22;22158;59.280;17.806;2024-01-16T12:47:50;-10.40;99.90
35668;DHT22;22158;59.280;17.806;2024-01-16T12:50:21;-10.30;99.90
35668;DHT22;22158;59.280;17.806;2024-01-16T12:53:00;-10.30;99.90
35668;DHT22;22158;59.280;17.806;2024-01-16T12:55:26;-10.30;99.90
35668;DHT22;22158;59.280;17.806;2024-01-16T12:58:20;-10.30;99.90
35668;DHT22;22158;59.280;17.806;2024-01-16T13:00:49;-10.30;99.90
35668;DHT22;22158;59.280;17.806;2024-01-16T13:03:19;-10.00;99.90
35668;DHT22;22158;59.280;17.806;2024-01-16T13:05:54;-9.70;99.90
35668;DHT22;22158;59.280;17.806;2024-01-16T13:08:20;-8.90;99.90
35668;DHT22;22158;59.280;17.806;2024-01-16T13:10:46;-7.90;99.90
35668;DHT22;22158;59.280;17.806;2024-01-16T13:13:13;-6.70;98.30
35668;DHT22;22158;59.280;17.806;2024-01-16T13:15:40;-5.40;95.30
35668;DHT22;22158;59.280;17.806;2024-01-16T13:18:06;-4.70;92.40
35668;DHT22;22158;59.280;17.806;2024-01-16T13:20:32;-3.70;90.80
35668;DHT22;22158;59.280;17.806;2024-01-16T13:22:57;-3.90;88.40
35668;DHT22;22158;59.280;17.806;2024-01-16T13:25:23;-4.40;89.00
35668;DHT22;22158;59.280;17.806;2024-01-16T13:27:49;-4.70;90.00
35668;DHT22;22158;59.280;17.806;2024-01-16T13:30:15;-5.40;89.70
35668;DHT22;22158;59.280;17.806;2024-01-16T13:32:42;-6.40;90.90
35668;DHT22;22158;59.280;17.806;2024-01-16T13:35:08;-7.50;92.90
35668;DHT22;22158;59.280;17.806;2024-01-16T13:37:34;-8.20;94.30
35668;DHT22;22158;59.280;17.806;2024-01-16T13:40:04;-9.20;96.30
35668;DHT22;22158;59.280;17.806;2024-01-16T13:42:34;-9.60;97.40
35668;DHT22;22158;59.280;17.806;2024-01-16T13:45:00;-10.00;98.50
35668;DHT22;22158;59.280;17.806;2024-01-16T13:47:26;-10.30;99.50
35668;DHT22;22158;59.280;17.806;2024-01-16T13:49:52;-10.40;99.90
35668;DHT22;22158;59.280;17.806;2024-01-16T13:52:17;-10.70;99.90
35668;DHT22;22158;59.280;17.806;2024-01-16T13:54:43;-10.90;99.90
35668;DHT22;22158;59.280;17.806;2024-01-16T13:57:09;-11.00;99.90
35668;DHT22;22158;59.280;17.806;2024-01-16T13:59:36;-11.10;99.90
35668;DHT22;22158;59.280;17.806;2024-01-16T14:02:03;-11.20;99.90
35668;DHT22;22158;59.280;17.806;2024-01-16T14:04:33;-11.30;99.90
35668;DHT22;22158;59.280;17.806;2024-01-16T14:06:59;-11.40;99.90
35668;DHT22;22158;59.280;17.806;2024-01-16T14:09:24;-11.40;99.90
35668;DHT22;22158;59.280;17.806;2024-01-16T14:11:50;-11.50;99.90
35668;DHT22;22158;59.280;17.806;2024-01-16T14:14:16;-11.50;99.90
35668;DHT22;22158;59.280;17.806;2024-01-16T14:16:41;-11.60;99.90
35668;DHT22;22158;59.280;17.806;2024-01-16T14:19:07;-11.70;99.90
35668;DHT22;22158;59.280;17.806;2024-01-16T14:21:33;-11.70;99.90
35668;DHT22;22158;59.280;17.806;2024-01-16T14:23:58;-11.70;99.90
35668;DHT22;22158;59.280;17.806;2024-01-16T14:26:24;-11.60;99.90
35668;DHT22;22158;59.280;17.806;2024-01-16T14:28:49;-11.80;99.90
35668;DHT22;22158;59.280;17.806;2024-01-16T14:31:15;-11.80;99.90
35668;DHT22;22158;59.280;17.806;2024-01-16T14:33:41;-11.90;99.90
35668;DHT22;22158;59.280;17.806;2024-01-16T14:36:07;-11.90;99.90
35668;DHT22;22158;59.280;17.806;2024-01-16T14:38:33;-11.80;99.90
35668;DHT22;22158;59.280;17.806;2024-01-16T14:40:59;-11.80;99.90
35668;DHT22;22158;59.280;17.806;2024-01-16T14:43:24;-11.90;99.90
35668;DHT22;22158;59.280;17.806;2024-01-16T14:45:50;-11.90;99.90
35668;DHT22;22158;59.280;17.806;2024-01-16T14:48:16;-12.00;99.90
35668;DHT22;22158;59.280;17.806;2024-01-16T14:50:42;-12.00;99.90
35668;DHT22;22158;59.280;17.806;2024-01-16T14:53:08;-12.10;99.90
35668;DHT22;22158;59.280;17.806;2024-01-16T14:55:34;-12.20;99.90
35668;DHT22;22158;59.280;17.806;2024-01-16T14:58:00;-12.30;99.90
35668;DHT22;22158;59.280;17.806;2024-01-16T15:00:26;-12.30;99.90
35668;DHT22;22158;59.280;17.806;2024-01-16T15:02:55;-12.40;99.90
35668;DHT22;22158;59.280;17.806;2024-01-16T15:05:22;-12.50;99.90
35668;DHT22;22158;59.280;17.806;2024-01-16T15:07:49;-12.60;99.90
35668;DHT22;22158;59.280;17.806;2024-01-16T15:10:17;-12.70;99.90
35668;DHT22;22158;59.280;17.806;2024-01-16T15:12:44;-12.80;99.90
35668;DHT22;22158;59.280;17.806;2024-01-16T15:15:14;-12.90;99.90
35668;DHT22;22158;59.280;17.806;2024-01-16T15:17:44;-12.90;99.90